createdAt,value
2022-08-21T06:04:38.476Z,64.37
2022-08-21T06:05:38.431Z,63.57
2022-08-21T06:06:38.321Z,62.34
2022-08-21T06:07:38.520Z,63.43
2022-08-21T06:08:38.457Z,61.51
2022-08-21T06:09:38.228Z,60.55
2022-08-21T06:10:38.205Z,60.65
2022-08-21T06:11:38.201Z,63.96
2022-08-21T06:12:38.204Z,66.82
2022-08-21T06:13:38.181Z,68.46
2022-08-21T06:14:38.171Z,66.39
2022-08-21T06:15:38.155Z,65.42
2022-08-21T06:16:38.131Z,65.28
2022-08-21T06:17:38.154Z,68.96
2022-08-21T06:18:38.103Z,69.99
2022-08-21T06:19:38.102Z,68.96
2022-08-21T06:20:38.088Z,66.02
2022-08-21T06:21:38.070Z,63.43
2022-08-21T06:22:38.048Z,63.57
2022-08-21T06:23:38.072Z,63.36
2022-08-21T06:24:38.025Z,66.69
2022-08-21T06:25:38.044Z,64.26
2022-08-21T06:26:38.003Z,64.70
2022-08-21T06:27:38.014Z,63.23
2022-08-21T06:28:38.015Z,68.42
2022-08-21T06:29:44.656Z,70.79
2022-08-21T06:30:37.954Z,72.10
2022-08-21T06:31:37.950Z,72.53
2022-08-21T06:32:37.922Z,70.79
2022-08-21T06:33:37.948Z,71.80
2022-08-21T06:34:37.901Z,71.56
2022-08-21T06:35:37.893Z,68.85
2022-08-21T06:36:37.877Z,68.99
2022-08-21T06:37:37.884Z,69.46
2022-08-21T06:38:37.880Z,69.89
2022-08-21T06:39:39.951Z,67.45
2022-08-21T06:40:38.947Z,68.96
2022-08-21T06:41:39.161Z,65.22
2022-08-21T06:42:37.792Z,64.26
2022-08-21T06:43:39.347Z,63.19
2022-08-21T06:44:37.772Z,64.39
2022-08-21T06:45:37.772Z,64.56
2022-08-21T06:46:37.751Z,65.33
2022-08-21T06:47:37.739Z,67.02
2022-08-21T06:48:37.767Z,67.79
2022-08-21T06:49:37.712Z,69.62
2022-08-21T06:50:37.719Z,69.66
2022-08-21T06:51:37.685Z,66.36
2022-08-21T06:52:37.662Z,67.29
2022-08-21T06:53:37.661Z,68.69
2022-08-21T06:54:38.797Z,68.32
2022-08-21T06:55:38.782Z,69.76
2022-08-21T06:56:38.754Z,69.99
2022-08-21T06:57:38.762Z,69.42
2022-08-21T06:58:38.723Z,68.69
2022-08-21T06:59:38.713Z,69.32
2022-08-21T07:00:38.702Z,69.12
2022-08-21T07:01:38.822Z,68.55
2022-08-21T07:02:41.576Z,68.08
2022-08-21T07:03:38.671Z,68.12
2022-08-21T07:04:38.683Z,68.89
2022-08-21T07:05:38.634Z,66.55
2022-08-21T07:06:38.627Z,67.16
2022-08-21T07:07:38.602Z,66.62
2022-08-21T07:08:38.617Z,67.38
2022-08-21T07:09:38.631Z,68.69
2022-08-21T07:10:38.609Z,70.50
2022-08-21T07:11:44.233Z,67.76
2022-08-21T07:12:39.578Z,66.36
2022-08-21T07:13:39.673Z,64.55
2022-08-21T07:14:38.649Z,60.91
2022-08-21T07:15:38.555Z,59.18
2022-08-21T07:16:38.549Z,59.15
2022-08-21T07:17:38.554Z,58.27
2022-08-21T07:18:38.804Z,58.76
2022-08-21T07:19:38.602Z,58.10
2022-08-21T07:20:38.547Z,58.80
2022-08-21T07:21:38.505Z,58.33
2022-08-21T07:22:38.446Z,58.22
2022-08-21T07:23:38.703Z,54.08
2022-08-21T07:24:38.470Z,52.76
2022-08-21T07:25:38.823Z,52.74
2022-08-21T07:26:39.030Z,54.08
2022-08-21T07:27:38.552Z,54.88
2022-08-21T07:28:38.888Z,55.77
2022-08-21T07:29:38.483Z,55.97
2022-08-21T07:30:38.517Z,56.47
2022-08-21T07:31:38.381Z,54.58
2022-08-21T07:32:38.377Z,55.10
2022-08-21T07:33:38.380Z,55.80
2022-08-21T07:34:38.534Z,56.02
2022-08-21T07:35:38.459Z,55.65
2022-08-21T07:36:38.651Z,53.91
2022-08-21T07:37:38.577Z,54.00
2022-08-21T07:38:38.623Z,54.00
2022-08-21T07:39:38.842Z,52.39
2022-08-21T07:40:38.473Z,52.44
2022-08-21T07:41:39.161Z,54.65
2022-08-21T07:42:38.712Z,54.28
2022-08-21T07:43:46.010Z,54.38
2022-08-21T07:44:39.417Z,55.63
2022-08-21T07:45:38.811Z,55.30
2022-08-21T07:46:38.302Z,55.00
2022-08-21T07:47:42.921Z,55.60
2022-08-21T08:27:14.664Z,54.49
2022-08-21T16:51:04.269Z,44.99
2022-08-21T16:52:05.649Z,45.11
2022-08-21T16:53:05.459Z,44.81
2022-08-21T16:54:05.287Z,45.31
2022-08-21T16:55:05.251Z,45.61
2022-08-21T16:56:05.221Z,45.41
2022-08-21T16:57:05.452Z,45.31
2022-08-21T16:58:05.226Z,45.41
2022-08-21T16:59:05.163Z,45.21
2022-08-21T17:00:05.164Z,45.61
2022-08-21T17:01:08.460Z,45.03
2022-08-21T17:02:06.178Z,45.03
2022-08-21T17:03:05.157Z,46.75
2022-08-21T17:04:05.174Z,46.05
2022-08-21T17:05:05.116Z,45.75
2022-08-21T17:06:05.118Z,45.95
2022-08-21T17:07:05.175Z,45.97
2022-08-21T17:11:53.271Z,46.89
2022-08-21T17:12:21.048Z,46.79
2022-08-21T17:13:21.026Z,47.41
2022-08-21T17:14:20.913Z,47.71
2022-08-21T17:15:21.581Z,47.41
2022-08-21T17:16:20.945Z,48.43
2022-08-21T17:17:20.904Z,48.13
2022-08-21T17:18:22.052Z,48.23
2022-08-21T17:19:22.027Z,49.05
2022-08-21T17:20:22.051Z,48.65
2022-08-21T17:21:22.025Z,48.75
2022-08-21T17:22:22.104Z,47.96
2022-08-21T17:23:22.043Z,47.96
2022-08-21T17:24:21.935Z,48.78
2022-08-21T17:25:21.953Z,48.46
2022-08-21T17:26:21.909Z,48.88
2022-08-21T17:27:21.935Z,48.48
2022-08-21T17:28:21.942Z,48.58
2022-08-21T17:29:21.881Z,49.98
2022-08-21T17:30:21.862Z,49.77
2022-08-21T17:31:21.942Z,48.38
2022-08-21T17:32:21.955Z,48.70
2022-08-21T17:33:21.870Z,49.30
2022-08-21T17:34:23.026Z,48.58
2022-08-21T17:35:21.834Z,49.80
2022-08-21T17:36:21.810Z,50.00
2022-08-21T17:37:23.065Z,50.20
2022-08-21T17:38:22.177Z,50.10
2022-08-21T17:39:22.300Z,49.82
2022-08-21T17:40:21.867Z,49.60
2022-08-21T17:41:21.868Z,50.10
2022-08-21T17:42:21.735Z,49.72
2022-08-21T17:43:21.778Z,50.35
2022-08-21T17:44:21.769Z,49.92
2022-08-21T17:45:21.675Z,49.82
2022-08-21T17:46:21.680Z,49.92
2022-08-21T17:47:21.727Z,49.42
2022-08-21T17:48:22.230Z,49.92
2022-08-21T17:49:21.688Z,49.72
2022-08-21T17:50:22.570Z,49.52
2022-08-21T17:51:21.620Z,48.52
2022-08-21T17:52:21.621Z,48.65
2022-08-21T17:53:21.606Z,49.35
2022-08-21T17:54:21.589Z,50.04
2022-08-21T17:55:21.647Z,50.35
2022-08-21T17:56:21.573Z,49.74
2022-08-21T17:57:22.785Z,49.85
2022-08-21T17:58:21.603Z,50.15
2022-08-21T17:59:21.615Z,49.74
2022-08-21T18:00:21.550Z,49.77
2022-08-21T18:01:21.619Z,52.09
2022-08-21T18:02:21.501Z,52.82
2022-08-21T18:03:21.526Z,54.44
2022-08-21T18:04:21.860Z,53.37
2022-08-21T18:05:21.500Z,53.14
2022-08-21T18:06:21.452Z,53.64
2022-08-21T18:07:32.130Z,51.94
2022-08-21T18:08:22.459Z,53.27
2022-08-21T18:09:21.450Z,54.47
2022-08-21T18:10:21.431Z,54.87
2022-08-21T18:11:23.480Z,54.60
2022-08-21T18:12:21.399Z,54.10
2022-08-21T18:13:21.636Z,55.10
2022-08-21T18:14:21.335Z,54.80
2022-08-21T18:15:21.521Z,54.10
2022-08-21T18:16:21.384Z,55.30
2022-08-21T18:17:21.318Z,55.30
2022-08-21T18:18:21.376Z,55.80
2022-08-21T18:19:21.305Z,56.13
2022-08-21T18:20:21.301Z,55.02
2022-08-21T18:21:21.252Z,56.02
2022-08-21T18:22:21.359Z,55.82
2022-08-21T18:23:21.277Z,55.85
2022-08-21T18:24:21.212Z,56.26
2022-08-21T18:25:21.212Z,55.55
2022-08-21T18:26:21.234Z,56.45
2022-08-21T18:27:21.219Z,56.15
2022-08-21T18:28:21.193Z,56.76
2022-08-21T18:29:21.137Z,56.96
2022-08-21T18:30:21.124Z,56.96
2022-08-21T18:31:21.177Z,57.96
2022-08-21T18:32:31.016Z,56.76
2022-08-21T18:33:21.164Z,57.56
2022-08-21T18:34:21.074Z,57.68
2022-08-21T18:35:21.071Z,56.91
2022-08-21T18:36:21.092Z,56.58
2022-08-21T18:37:21.050Z,57.01
2022-08-21T18:38:21.037Z,57.91
2022-08-21T18:39:36.061Z,57.71
2022-08-21T18:40:21.068Z,58.64
2022-08-21T18:41:21.047Z,58.84
2022-08-21T18:42:21.460Z,58.77
2022-08-21T18:43:21.005Z,59.38
2022-08-21T18:44:21.022Z,59.08
2022-08-21T18:45:21.015Z,59.08
2022-08-21T18:46:21.092Z,59.27
2022-08-21T18:47:20.966Z,59.27
2022-08-21T18:48:20.935Z,58.77
2022-08-21T18:49:20.936Z,58.57
2022-08-21T18:50:20.974Z,59.03
2022-08-21T18:51:20.960Z,59.10
2022-08-21T18:52:21.025Z,59.00
2022-08-21T18:53:27.876Z,59.60
2022-08-21T18:54:21.968Z,60.41
2022-08-21T18:55:20.885Z,59.70
2022-08-21T18:56:20.885Z,60.64
2022-08-21T18:57:21.081Z,61.24
2022-08-21T18:58:20.846Z,61.07
2022-08-21T18:59:20.920Z,60.53
2022-08-21T19:00:20.815Z,59.46
2022-08-21T19:01:20.840Z,60.64
2022-08-21T19:02:20.789Z,60.94
2022-08-21T19:03:23.836Z,59.83
2022-08-21T19:05:23.109Z,58.93
2022-08-21T19:06:20.840Z,60.44
2022-08-21T19:07:20.756Z,58.62
2022-08-21T19:08:20.695Z,59.83
2022-08-21T19:09:20.697Z,59.26
2022-08-21T19:10:27.482Z,60.47
2022-08-21T19:11:23.263Z,61.17
2022-08-21T19:12:20.716Z,61.77
2022-08-21T19:13:20.753Z,60.77
2022-08-21T19:14:20.674Z,60.36
2022-08-21T19:15:20.647Z,59.26
2022-08-21T19:16:20.618Z,59.83
2022-08-21T19:17:20.698Z,60.44
2022-08-21T19:18:24.108Z,61.24
2022-08-21T19:19:20.583Z,60.57
2022-08-21T19:20:25.838Z,60.77
2022-08-21T19:21:20.579Z,59.53
2022-08-21T19:22:20.978Z,61.24
2022-08-21T19:23:21.616Z,59.66
2022-08-21T19:24:23.260Z,61.07
2022-08-21T19:25:20.541Z,61.70
2022-08-21T19:26:20.486Z,60.60
2022-08-21T19:27:20.525Z,60.57
2022-08-21T19:28:20.456Z,60.47
2022-08-21T19:29:20.503Z,60.67
2022-08-21T19:30:20.422Z,60.57
2022-08-21T19:32:21.429Z,59.74
2022-08-21T19:33:23.410Z,59.53
2022-08-21T19:34:20.408Z,60.53
2022-08-21T19:35:20.458Z,59.63
2022-08-21T19:36:20.442Z,59.43
2022-08-21T19:37:20.416Z,59.50
2022-08-21T19:38:20.583Z,59.00
2022-08-21T19:39:20.472Z,59.50
2022-08-21T19:40:22.202Z,59.20
2022-08-21T19:41:20.353Z,59.33
2022-08-21T19:42:20.313Z,59.53
2022-08-21T19:43:23.208Z,59.74
2022-08-21T19:44:20.374Z,59.83
2022-08-21T19:45:21.312Z,60.13
2022-08-21T19:46:20.934Z,59.13
2022-08-21T19:47:20.476Z,59.13
2022-08-21T19:48:20.223Z,59.46
2022-08-21T19:49:20.979Z,59.03
2022-08-21T19:50:21.377Z,59.33
2022-08-21T19:51:20.199Z,59.74
